createdAt,value
2022-12-18T00:01:07.163Z,37.67
2022-12-18T00:03:38.095Z,44.72
2022-12-18T00:06:05.598Z,43.17
2022-12-18T00:08:32.681Z,39.92
2022-12-18T00:13:37.289Z,35.10
2022-12-18T00:16:06.255Z,41.50
2022-12-18T00:18:33.592Z,41.63
2022-12-18T00:21:01.873Z,39.17
2022-12-18T00:23:29.346Z,41.92
2022-12-18T00:25:56.496Z,43.85
2022-12-18T00:28:23.576Z,44.08
2022-12-18T00:30:52.308Z,42.20
2022-12-18T00:33:19.581Z,36.55
2022-12-18T00:40:39.950Z,32.97
2022-12-18T00:43:07.097Z,38.38
2022-12-18T00:45:37.086Z,41.63
2022-12-18T00:50:31.938Z,29.83
2022-12-18T00:53:01.357Z,41.35
2022-12-18T00:55:28.564Z,40.38
2022-12-18T00:57:55.714Z,38.30
2022-12-18T01:00:23.153Z,40.95
2022-12-18T01:02:50.692Z,42.67
2022-12-18T01:05:18.053Z,32.33
2022-12-18T01:07:45.218Z,37.10
2022-12-18T01:10:14.034Z,38.08
2022-12-18T01:12:41.527Z,39.28
2022-12-18T01:15:09.390Z,49.03
2022-12-18T01:17:37.986Z,43.83
2022-12-18T01:20:05.453Z,42.22
2022-12-18T01:22:37.039Z,44.20
2022-12-18T01:25:05.206Z,48.83
2022-12-18T01:27:32.865Z,43.72
2022-12-18T01:30:00.027Z,40.60
2022-12-18T01:32:27.323Z,41.60
2022-12-18T01:34:54.427Z,43.05
2022-12-18T01:37:21.652Z,38.97
2022-12-18T01:39:50.924Z,39.42
2022-12-18T01:42:18.336Z,45.17
2022-12-18T01:47:28.091Z,32.85
2022-12-18T01:49:55.957Z,44.05
2022-12-18T01:52:23.536Z,39.63
2022-12-18T01:54:52.457Z,31.83
2022-12-18T01:57:20.390Z,46.88
2022-12-18T01:59:48.775Z,42.70
2022-12-18T02:02:17.350Z,46.33
2022-12-18T02:04:49.347Z,43.13
2022-12-18T02:07:17.753Z,36.92
2022-12-18T02:09:50.902Z,48.05
2022-12-18T02:15:01.800Z,31.10
2022-12-18T02:17:39.960Z,34.88
2022-12-18T02:20:23.430Z,43.03
2022-12-18T02:23:02.622Z,45.45
2022-12-18T02:25:35.994Z,39.20
2022-12-18T02:28:05.731Z,40.42
2022-12-18T02:30:34.073Z,47.60
2022-12-18T02:33:02.800Z,39.20
2022-12-18T02:35:32.326Z,43.92
2022-12-18T02:38:01.215Z,47.08
2022-12-18T02:40:31.851Z,39.35
2022-12-18T02:43:13.955Z,40.97
2022-12-18T02:45:58.653Z,42.72
2022-12-18T02:48:32.344Z,33.67
2022-12-18T02:51:15.365Z,35.63
2022-12-18T02:53:50.721Z,40.65
2022-12-18T02:56:45.206Z,43.60
2022-12-18T02:59:16.516Z,43.90
2022-12-18T03:01:51.762Z,38.90
2022-12-18T03:04:31.290Z,34.33
2022-12-18T03:07:00.115Z,39.40
2022-12-18T03:09:33.668Z,39.92
2022-12-18T03:12:23.926Z,40.20
2022-12-18T03:15:07.052Z,37.47
2022-12-18T03:17:35.472Z,36.80
2022-12-18T03:20:08.573Z,37.08
2022-12-18T03:22:37.009Z,33.70
2022-12-18T03:25:05.888Z,42.20
2022-12-18T03:27:33.999Z,33.70
2022-12-18T03:30:10.173Z,38.90
2022-12-18T03:32:46.648Z,38.40
2022-12-18T03:35:18.397Z,34.15
2022-12-18T03:37:45.787Z,32.92
2022-12-18T03:40:13.187Z,42.03
2022-12-18T03:42:55.545Z,35.22
2022-12-18T03:45:29.049Z,35.05
2022-12-18T03:48:00.897Z,33.72
2022-12-18T03:50:38.652Z,34.67
2022-12-18T03:53:09.768Z,37.53
2022-12-18T03:55:37.713Z,35.97
2022-12-18T03:58:07.919Z,33.75
2022-12-18T04:00:53.341Z,32.67
2022-12-18T04:03:26.180Z,36.03
2022-12-18T04:05:55.830Z,33.95
2022-12-18T04:08:23.649Z,30.48
2022-12-18T04:11:01.542Z,32.58
2022-12-18T04:13:34.704Z,32.30
2022-12-18T04:16:03.678Z,29.13
2022-12-18T04:18:31.682Z,32.05
2022-12-18T04:21:00.748Z,27.17
2022-12-18T04:23:29.304Z,31.75
2022-12-18T04:25:58.872Z,27.40
2022-12-18T04:28:43.525Z,36.08
2022-12-18T04:31:10.983Z,29.15
2022-12-18T04:33:39.226Z,25.17
2022-12-18T04:36:07.790Z,22.80
2022-12-18T04:38:35.894Z,23.17
2022-12-18T04:41:08.299Z,29.40
2022-12-18T04:43:36.724Z,23.08
2022-12-18T04:46:07.990Z,28.02
2022-12-18T04:48:35.958Z,26.77
2022-12-18T04:51:03.466Z,24.17
2022-12-18T04:56:04.567Z,23.75
2022-12-18T04:58:31.758Z,25.13
2022-12-18T05:00:58.869Z,30.10
2022-12-18T05:03:25.989Z,18.27
2022-12-18T05:05:53.757Z,20.70
2022-12-18T05:08:20.986Z,26.23
2022-12-18T05:10:48.073Z,24.27
2022-12-18T05:13:15.207Z,26.45
2022-12-18T05:15:42.760Z,23.98
2022-12-18T05:18:10.247Z,25.27
2022-12-18T05:23:04.113Z,17.40
2022-12-18T05:25:31.236Z,21.98
2022-12-18T05:27:58.412Z,22.42
2022-12-18T05:30:26.014Z,24.77
2022-12-18T05:32:53.275Z,23.20
2022-12-18T05:35:20.775Z,21.67
2022-12-18T05:37:47.840Z,22.75
2022-12-18T05:40:14.949Z,20.88
2022-12-18T05:42:42.030Z,20.23
2022-12-18T05:45:09.313Z,20.63
2022-12-18T05:47:36.491Z,19.25
2022-12-18T05:50:03.648Z,21.70
2022-12-18T05:52:31.990Z,21.00
2022-12-18T05:55:00.083Z,18.65
2022-12-18T05:57:27.190Z,22.70
2022-12-18T05:59:54.283Z,18.73
2022-12-18T06:02:22.115Z,19.70
2022-12-18T06:04:49.374Z,18.50
2022-12-18T06:07:16.522Z,18.52
2022-12-18T06:09:43.661Z,19.98
2022-12-18T06:12:11.577Z,18.42
2022-12-18T06:14:38.847Z,22.38
2022-12-18T06:17:05.924Z,17.48
2022-12-18T06:19:33.013Z,19.42
2022-12-18T06:22:00.205Z,15.95
2022-12-18T06:24:27.344Z,18.05
2022-12-18T06:26:54.811Z,21.83
2022-12-18T06:29:21.951Z,23.15
2022-12-18T06:31:49.113Z,17.92
2022-12-18T06:34:16.241Z,19.55
2022-12-18T06:36:43.334Z,27.10
2022-12-18T06:39:10.449Z,20.67
2022-12-18T06:41:37.552Z,24.92
2022-12-18T06:44:04.864Z,27.45
2022-12-18T06:46:33.113Z,19.38
2022-12-18T06:49:00.187Z,21.67
2022-12-18T06:51:28.022Z,24.48
2022-12-18T06:53:55.126Z,24.73
2022-12-18T06:56:22.254Z,20.55
2022-12-18T06:58:52.550Z,22.75
2022-12-18T07:01:19.998Z,22.98
2022-12-18T07:03:47.349Z,19.67
2022-12-18T07:06:18.530Z,17.58
2022-12-18T07:08:46.423Z,22.33
2022-12-18T07:11:14.120Z,26.25
2022-12-18T07:13:41.652Z,16.60
2022-12-18T07:16:20.830Z,21.23
2022-12-18T07:18:51.268Z,19.50
2022-12-18T07:21:19.696Z,21.00
2022-12-18T07:23:48.936Z,19.90
2022-12-18T07:26:17.860Z,18.15
2022-12-18T07:28:44.955Z,19.30
2022-12-18T07:31:16.452Z,17.40
2022-12-18T07:33:43.712Z,19.73
2022-12-18T07:36:11.535Z,19.05
2022-12-18T07:38:38.771Z,20.33
2022-12-18T07:41:07.178Z,17.30
2022-12-18T07:43:34.615Z,22.30
2022-12-18T07:48:29.646Z,17.75
2022-12-18T07:51:00.469Z,24.02
2022-12-18T07:53:27.849Z,16.70
2022-12-18T07:58:50.201Z,17.55
2022-12-18T08:01:17.369Z,17.40
2022-12-18T08:06:11.563Z,14.18
2022-12-18T08:08:38.811Z,16.15
2022-12-18T08:11:06.040Z,18.02
2022-12-18T08:13:33.373Z,20.20
2022-12-18T08:16:01.706Z,17.15
2022-12-18T08:18:29.284Z,16.20
2022-12-18T08:20:56.802Z,18.83
2022-12-18T08:23:26.513Z,22.67
2022-12-18T08:25:55.781Z,17.35
2022-12-18T08:28:22.925Z,16.95
2022-12-18T08:30:53.465Z,17.88
2022-12-18T08:33:20.625Z,21.38
2022-12-18T08:35:47.727Z,19.45
2022-12-18T08:38:14.846Z,22.67
2022-12-18T08:40:42.224Z,19.05
2022-12-18T08:43:30.045Z,18.70
2022-12-18T08:45:57.378Z,22.85
2022-12-18T08:48:24.488Z,22.13
2022-12-18T08:50:58.947Z,22.45
2022-12-18T08:53:26.962Z,20.33
2022-12-18T08:55:58.062Z,20.85
2022-12-18T08:58:25.146Z,19.50
2022-12-18T09:00:52.291Z,20.65
2022-12-18T09:03:20.229Z,21.67
2022-12-18T09:05:47.937Z,19.70
2022-12-18T09:08:15.251Z,16.75
2022-12-18T09:10:45.952Z,19.27
2022-12-18T09:13:13.549Z,21.15
2022-12-18T09:15:44.035Z,19.20
2022-12-18T09:18:11.212Z,24.10
2022-12-18T09:20:38.877Z,18.35
2022-12-18T09:23:06.688Z,26.95
2022-12-18T09:25:36.539Z,19.90
2022-12-18T09:28:04.448Z,20.83
2022-12-18T09:30:34.212Z,22.13
2022-12-18T09:33:02.554Z,21.90
2022-12-18T09:35:29.777Z,21.13
2022-12-18T09:37:56.999Z,18.40
2022-12-18T09:40:26.699Z,20.15
2022-12-18T09:42:57.489Z,21.02
2022-12-18T09:45:25.258Z,22.77
2022-12-18T09:47:54.077Z,23.55
2022-12-18T09:50:28.462Z,19.85
2022-12-18T09:52:58.068Z,17.35
2022-12-18T09:55:32.189Z,15.38
2022-12-18T09:58:09.290Z,17.85
2022-12-18T10:00:36.498Z,20.30
2022-12-18T10:03:14.489Z,17.33
2022-12-18T10:05:51.022Z,19.10
2022-12-18T10:08:25.419Z,20.42
2022-12-18T10:10:59.085Z,20.83
2022-12-18T10:13:39.395Z,26.75
2022-12-18T10:16:06.680Z,20.67
2022-12-18T10:18:54.061Z,17.00
2022-12-18T10:21:24.064Z,19.90
2022-12-18T10:24:10.323Z,15.60
2022-12-18T10:26:37.565Z,19.98
2022-12-18T10:29:09.886Z,19.92
2022-12-18T10:31:37.177Z,17.98
2022-12-18T10:36:31.434Z,16.10
2022-12-18T10:39:18.600Z,15.68
2022-12-18T10:41:45.819Z,23.75
2022-12-18T10:44:16.541Z,17.23
2022-12-18T10:46:43.690Z,16.85
2022-12-18T10:49:20.500Z,17.23
2022-12-18T10:51:47.599Z,17.77
2022-12-18T10:54:14.713Z,19.10
2022-12-18T10:56:42.135Z,17.00
2022-12-18T10:59:12.877Z,16.85
2022-12-18T11:01:49.456Z,19.73
2022-12-18T11:04:24.587Z,17.73
2022-12-18T11:06:54.960Z,16.98
2022-12-18T11:09:23.875Z,16.58
2022-12-18T11:11:53.246Z,17.25
2022-12-18T11:14:23.719Z,14.55
2022-12-18T11:17:24.348Z,13.93
2022-12-18T11:19:39.759Z,15.30
2022-12-18T11:22:21.288Z,17.05
2022-12-18T11:25:29.695Z,19.83
2022-12-18T11:27:49.325Z,17.70
2022-12-18T11:30:24.258Z,18.85
2022-12-18T11:33:00.963Z,15.02
2022-12-18T11:35:34.078Z,20.92
2022-12-18T11:38:06.365Z,18.90
2022-12-18T11:40:41.284Z,15.52
2022-12-18T11:43:12.277Z,18.08
2022-12-18T11:45:48.085Z,17.00
2022-12-18T11:48:24.223Z,17.98
2022-12-18T11:50:55.799Z,18.95
2022-12-18T11:53:23.386Z,16.60
2022-12-18T11:56:01.796Z,17.27
2022-12-18T11:58:34.689Z,17.40
2022-12-18T12:01:01.874Z,16.38
2022-12-18T12:03:31.799Z,16.58
2022-12-18T12:05:58.935Z,20.15
2022-12-18T12:08:39.812Z,16.10
2022-12-18T12:11:25.743Z,15.82
2022-12-18T12:13:52.795Z,18.02
2022-12-18T12:16:20.037Z,20.58
2022-12-18T12:18:53.625Z,14.88
2022-12-18T12:23:59.770Z,16.30
2022-12-18T12:26:36.117Z,18.60
2022-12-18T12:29:10.704Z,15.85
2022-12-18T12:31:38.090Z,14.00
2022-12-18T12:34:24.098Z,18.08
2022-12-18T12:37:10.682Z,16.80
2022-12-18T12:39:39.567Z,14.73
2022-12-18T12:42:27.407Z,17.42
2022-12-18T12:44:59.072Z,17.58
2022-12-18T12:47:34.102Z,18.35
2022-12-18T12:50:04.298Z,19.98
2022-12-18T12:52:39.111Z,17.30
2022-12-18T12:55:14.499Z,16.65
2022-12-18T12:57:43.889Z,17.45
2022-12-18T13:00:12.982Z,19.65
2022-12-18T13:02:55.454Z,17.27
2022-12-18T13:05:34.193Z,20.45
2022-12-18T13:08:04.093Z,18.88
2022-12-18T13:10:41.565Z,21.27
2022-12-18T13:13:11.024Z,20.98
2022-12-18T13:15:43.883Z,17.20
2022-12-18T13:18:11.010Z,19.90
2022-12-18T13:20:44.055Z,18.40
2022-12-18T13:23:21.504Z,20.15
2022-12-18T13:25:49.539Z,19.63
2022-12-18T13:28:18.006Z,20.40
2022-12-18T13:30:46.820Z,19.58
2022-12-18T13:33:17.532Z,17.92
2022-12-18T13:35:47.840Z,16.15
2022-12-18T13:38:25.256Z,16.92
2022-12-18T13:40:52.382Z,18.65
2022-12-18T13:43:19.435Z,19.65
2022-12-18T13:45:49.061Z,17.60
2022-12-18T13:48:24.044Z,20.63
2022-12-18T13:50:58.548Z,18.83
2022-12-18T13:53:34.650Z,19.25
2022-12-18T13:56:02.116Z,17.38
2022-12-18T13:58:29.388Z,20.80
2022-12-18T14:00:57.693Z,20.52
2022-12-18T14:03:29.948Z,22.80
2022-12-18T14:06:00.516Z,17.08
2022-12-18T14:08:29.742Z,19.67
2022-12-18T14:10:56.911Z,21.45
2022-12-18T14:16:00.916Z,18.00
2022-12-18T14:18:30.833Z,17.23
2022-12-18T14:21:02.597Z,22.55
2022-12-18T14:23:38.394Z,18.30
2022-12-18T14:26:28.097Z,18.65
2022-12-18T14:28:56.316Z,17.35
2022-12-18T14:31:24.914Z,17.65
2022-12-18T14:33:52.973Z,18.48
2022-12-18T14:36:21.877Z,21.40
2022-12-18T14:38:54.541Z,18.35
2022-12-18T14:41:22.557Z,25.75
2022-12-18T14:43:50.623Z,24.90
2022-12-18T14:46:27.010Z,20.02
2022-12-18T14:48:54.681Z,18.38
2022-12-18T14:51:23.338Z,22.23
2022-12-18T14:53:55.689Z,17.33
2022-12-18T14:56:24.649Z,22.70
2022-12-18T14:58:53.532Z,16.50
2022-12-18T15:01:22.514Z,25.92
2022-12-18T15:03:49.841Z,23.80
2022-12-18T15:06:18.052Z,20.75
2022-12-18T15:08:45.240Z,19.40
2022-12-18T15:14:02.245Z,20.65
2022-12-18T15:16:29.509Z,18.58
2022-12-18T15:18:56.668Z,21.67
2022-12-18T15:21:23.863Z,20.70
2022-12-18T15:26:20.241Z,16.15
2022-12-18T15:28:51.376Z,19.00
2022-12-18T15:31:18.565Z,20.75
2022-12-18T15:36:15.395Z,19.95
2022-12-18T15:38:43.584Z,17.55
2022-12-18T15:41:22.934Z,20.80
2022-12-18T15:43:52.377Z,18.15
2022-12-18T15:46:27.579Z,19.65
2022-12-18T15:49:01.354Z,21.30
2022-12-18T15:51:36.789Z,24.08
2022-12-18T15:54:05.246Z,19.48
2022-12-18T15:56:51.383Z,20.58
2022-12-18T16:01:48.299Z,23.35
2022-12-18T16:04:17.110Z,23.48
2022-12-18T16:07:13.207Z,20.13
2022-12-18T16:09:31.368Z,17.48
2022-12-18T16:12:01.723Z,21.85
2022-12-18T16:14:31.833Z,21.15
2022-12-18T16:17:03.635Z,21.40
2022-12-18T16:19:31.236Z,20.08
2022-12-18T16:21:59.341Z,18.40
2022-12-18T16:24:30.498Z,22.98
2022-12-18T16:26:59.749Z,20.20
2022-12-18T16:29:30.812Z,20.90
2022-12-18T16:31:58.767Z,21.80
2022-12-18T16:34:29.485Z,24.02
2022-12-18T16:37:05.231Z,27.25
2022-12-18T16:39:34.838Z,23.77
2022-12-18T16:42:02.726Z,19.15
2022-12-18T16:44:33.452Z,21.67
2022-12-18T16:47:02.773Z,22.20
2022-12-18T16:49:30.068Z,22.58
2022-12-18T16:54:23.994Z,22.23
2022-12-18T16:56:52.061Z,22.20
2022-12-18T16:59:19.902Z,27.85
2022-12-18T17:01:47.711Z,22.15
2022-12-18T17:04:15.593Z,19.27
2022-12-18T17:06:44.119Z,22.42
2022-12-18T17:09:15.746Z,24.80
2022-12-18T17:11:43.440Z,24.70
2022-12-18T17:14:12.424Z,23.77
2022-12-18T17:16:40.127Z,24.48
2022-12-18T17:19:10.959Z,26.50
2022-12-18T17:21:42.472Z,25.85
2022-12-18T17:26:36.249Z,22.75
2022-12-18T17:31:31.006Z,17.67
2022-12-18T17:33:58.625Z,23.95
2022-12-18T17:36:28.903Z,26.85
2022-12-18T17:38:57.344Z,23.85
2022-12-18T17:41:25.031Z,24.05
2022-12-18T17:44:02.068Z,24.95
2022-12-18T17:46:30.652Z,22.13
2022-12-18T17:48:58.293Z,22.73
2022-12-18T17:51:25.661Z,25.80
2022-12-18T17:53:52.861Z,24.38
2022-12-18T17:58:50.238Z,24.98
2022-12-18T18:01:18.743Z,25.70
2022-12-18T18:03:47.350Z,23.17
2022-12-18T18:06:16.426Z,25.90
2022-12-18T18:11:31.817Z,23.38
2022-12-18T18:14:02.252Z,24.23
2022-12-18T18:16:30.677Z,24.20
2022-12-18T18:18:59.408Z,25.75
2022-12-18T18:21:26.642Z,24.58
2022-12-18T18:23:54.848Z,22.55
2022-12-18T18:26:22.430Z,24.83
2022-12-18T18:28:54.590Z,24.45
2022-12-18T18:31:21.885Z,27.40
2022-12-18T18:33:52.371Z,25.83
2022-12-18T18:36:19.451Z,28.55
2022-12-18T18:38:48.566Z,24.70
2022-12-18T18:41:16.263Z,24.65
2022-12-18T18:43:43.794Z,24.33
2022-12-18T18:46:13.048Z,27.65
2022-12-18T18:48:41.219Z,31.15
2022-12-18T18:51:20.148Z,24.02
2022-12-18T18:53:49.704Z,28.20
2022-12-18T18:56:45.536Z,29.90
2022-12-18T18:59:05.219Z,25.23
2022-12-18T19:01:32.915Z,28.60
2022-12-18T19:04:06.644Z,26.90
2022-12-18T19:06:34.426Z,24.63
2022-12-18T19:09:02.744Z,22.85
2022-12-18T19:11:48.824Z,26.95
2022-12-18T19:14:16.485Z,17.88
2022-12-18T19:16:45.505Z,27.90
2022-12-18T19:19:13.347Z,27.23
2022-12-18T19:21:40.924Z,26.27
2022-12-18T19:26:37.437Z,22.00
2022-12-18T19:29:05.825Z,25.48
2022-12-18T19:31:36.132Z,26.80
2022-12-18T19:34:04.151Z,23.73
2022-12-18T19:36:31.658Z,24.75
2022-12-18T19:39:00.496Z,24.85
2022-12-18T19:41:29.187Z,21.38
2022-12-18T19:43:58.609Z,22.42
2022-12-18T19:46:25.875Z,24.08
2022-12-18T19:48:53.575Z,23.80
2022-12-18T19:51:22.271Z,29.48
2022-12-18T19:53:52.502Z,24.13
2022-12-18T19:56:25.676Z,20.73
2022-12-18T19:58:53.238Z,27.10
2022-12-18T20:01:21.325Z,28.30
2022-12-18T20:03:52.585Z,27.48
2022-12-18T20:06:21.847Z,28.60
2022-12-18T20:08:48.908Z,26.88
2022-12-18T20:11:16.008Z,30.80
2022-12-18T20:13:43.842Z,31.02
2022-12-18T20:16:12.499Z,30.63
2022-12-18T20:18:39.871Z,28.30
2022-12-18T20:21:13.618Z,27.23
2022-12-18T20:23:41.480Z,27.08
2022-12-18T20:26:08.962Z,25.17
2022-12-18T20:31:04.623Z,25.60
2022-12-18T20:33:32.177Z,27.27
2022-12-18T20:38:26.365Z,23.48
2022-12-18T20:40:54.131Z,28.15
2022-12-18T20:43:21.255Z,30.50
2022-12-18T20:48:15.281Z,27.75
2022-12-18T20:50:43.463Z,30.90
2022-12-18T20:53:10.661Z,26.63
2022-12-18T20:58:08.123Z,27.00
2022-12-18T21:03:02.541Z,27.98
2022-12-18T21:05:29.957Z,31.67
2022-12-18T21:07:57.117Z,25.63
2022-12-18T21:12:58.791Z,24.60
2022-12-18T21:15:29.291Z,30.05
2022-12-18T21:20:23.388Z,29.60
2022-12-18T21:22:50.675Z,26.30
2022-12-18T21:25:19.434Z,27.90
2022-12-18T21:30:14.968Z,30.55
2022-12-18T21:32:42.268Z,28.25
2022-12-18T21:35:09.666Z,30.05
2022-12-18T21:37:36.846Z,30.17
2022-12-18T21:42:49.737Z,28.63
2022-12-18T21:45:16.872Z,32.33
2022-12-18T21:50:10.677Z,26.55
2022-12-18T21:55:09.393Z,31.27
2022-12-18T21:57:37.841Z,26.83
2022-12-18T22:00:05.722Z,30.33
2022-12-18T22:02:39.510Z,24.13
2022-12-18T22:05:07.054Z,31.75
2022-12-18T22:07:34.377Z,29.35
2022-12-18T22:12:35.458Z,26.75
2022-12-18T22:17:30.064Z,31.13
2022-12-18T22:19:57.764Z,27.02
2022-12-18T22:22:25.143Z,35.63
2022-12-18T22:24:52.284Z,31.02
2022-12-18T22:27:19.452Z,26.40
2022-12-18T22:32:35.480Z,29.67
2022-12-18T22:35:08.302Z,30.25
2022-12-18T22:37:37.112Z,24.90
2022-12-18T22:40:05.387Z,31.52
2022-12-18T22:42:33.217Z,25.55
2022-12-18T22:45:00.438Z,29.15
2022-12-18T22:47:30.051Z,27.73
2022-12-18T22:49:58.033Z,28.40
2022-12-18T22:52:25.452Z,28.88
2022-12-18T22:54:53.518Z,26.98
2022-12-18T22:57:21.715Z,29.45
2022-12-18T22:59:49.137Z,32.13
2022-12-18T23:02:17.667Z,31.88
2022-12-18T23:04:45.193Z,28.90
2022-12-18T23:07:12.626Z,28.83
2022-12-18T23:09:39.888Z,31.98
2022-12-18T23:14:33.820Z,25.38
2022-12-18T23:17:00.872Z,28.60
2022-12-18T23:19:27.942Z,30.05
2022-12-18T23:21:57.152Z,30.92
2022-12-18T23:24:28.338Z,29.45
2022-12-18T23:26:58.399Z,31.85
2022-12-18T23:31:52.154Z,29.38
2022-12-18T23:36:47.159Z,28.10
2022-12-18T23:39:28.838Z,24.30
2022-12-18T23:41:56.460Z,37.72
2022-12-18T23:44:23.617Z,32.67
2022-12-18T23:49:17.525Z,33.90
2022-12-18T23:51:44.668Z,32.28
2022-12-18T23:56:38.399Z,30.17
2022-12-18T23:59:05.534Z,30.17
